Time;durP1;ratioP1;P1;durP2;ratioP2;P2;SDS_P1;SDS_P2;PMS_P1;PMS_P2;Temp;Humidity;BMP_temperature;BMP_pressure;BME280_temperature;BME280_humidity;BME280_pressure;Samples;Min_cycle;Max_cycle;Signal;HPM_P1;HPM_P2
2023/03/28 00:02:25;;;;;;;;;;;10.00;92.20;;;;;;5051508;28;19913;-70
2023/03/28 00:04:51;;;;;;;;;;;9.90;92.40;;;;;;5052457;28;19917;-69
2023/03/28 00:07:17;;;;;;;;;;;9.90;92.60;;;;;;5053001;28;19920;-70
2023/03/28 00:09:43;;;;;;;;;;;9.80;92.70;;;;;;5052655;28;20398;-70
2023/03/28 00:12:09;;;;;;;;;;;9.80;92.30;;;;;;5051480;28;19908;-69
2023/03/28 00:14:36;;;;;;;;;;;9.80;92.10;;;;;;5052754;28;20020;-73
2023/03/28 00:17:01;;;;;;;;;;;9.70;92.30;;;;;;5051745;28;19916;-70
2023/03/28 00:19:31;;;;;;;;;;;9.60;92.30;;;;;;5052890;28;19935;-69
2023/03/28 00:21:57;;;;;;;;;;;9.70;91.90;;;;;;5052566;28;20430;-71
2023/03/28 00:24:23;;;;;;;;;;;9.70;92.10;;;;;;5052601;28;19959;-70
2023/03/28 00:26:53;;;;;;;;;;;9.60;91.90;;;;;;5051846;28;20031;-70
2023/03/28 00:29:19;;;;;;;;;;;9.70;92.00;;;;;;5052883;28;19948;-69
2023/03/28 00:31:46;;;;;;;;;;;9.70;91.80;;;;;;5052539;28;20022;-70
2023/03/28 00:34:11;;;;;;;;;;;9.60;92.40;;;;;;5052885;28;20077;-76
2023/03/28 00:36:38;;;;;;;;;;;9.60;92.50;;;;;;5053447;28;19920;-72
2023/03/28 00:39:05;;;;;;;;;;;9.60;92.50;;;;;;5052895;28;19934;-69
2023/03/28 00:41:32;;;;;;;;;;;9.60;92.60;;;;;;5053206;28;20004;-73
2023/03/28 00:43:59;;;;;;;;;;;9.50;92.50;;;;;;5052206;28;19916;-69
2023/03/28 00:46:31;;;;;;;;;;;9.40;92.70;;;;;;5053139;28;20372;-70
2023/03/28 00:48:59;;;;;;;;;;;9.30;92.80;;;;;;5052824;28;19947;-75
2023/03/28 00:51:29;;;;;;;;;;;9.40;92.90;;;;;;5052690;28;19916;-70
2023/03/28 00:53:56;;;;;;;;;;;9.30;92.80;;;;;;5052322;28;19919;-70
2023/03/28 00:56:23;;;;;;;;;;;9.10;93.00;;;;;;5052837;28;19936;-70
2023/03/28 00:58:49;;;;;;;;;;;9.10;93.00;;;;;;5052228;28;19913;-70
2023/03/28 01:01:17;;;;;;;;;;;9.00;93.10;;;;;;5052844;28;19917;-70
2023/03/28 01:03:45;;;;;;;;;;;9.10;93.30;;;;;;5051986;28;19935;-71
2023/03/28 01:06:12;;;;;;;;;;;9.20;93.90;;;;;;5053670;28;19947;-70
2023/03/28 01:08:40;;;;;;;;;;;9.10;93.50;;;;;;5055282;28;19935;-70
2023/03/28 01:11:05;;;;;;;;;;;9.10;93.10;;;;;;5056293;28;19913;-70
2023/03/28 01:13:34;;;;;;;;;;;9.10;93.10;;;;;;5054652;28;19933;-69
2023/03/28 01:16:01;;;;;;;;;;;9.00;92.90;;;;;;5054655;28;19909;-70
2023/03/28 01:18:29;;;;;;;;;;;9.00;92.80;;;;;;5053826;28;19908;-71
2023/03/28 01:21:13;;;;;;;;;;;9.10;92.60;;;;;;5055822;28;19920;-69
2023/03/28 01:23:57;;;;;;;;;;;9.00;92.70;;;;;;5054176;28;19917;-72
2023/03/28 01:26:31;;;;;;;;;;;9.00;92.60;;;;;;5056072;28;19909;-70
2023/03/28 01:29:08;;;;;;;;;;;9.00;92.90;;;;;;5054344;28;19909;-70
2023/03/28 01:31:45;;;;;;;;;;;9.00;92.50;;;;;;5055712;28;20358;-69
2023/03/28 01:34:19;;;;;;;;;;;9.00;92.30;;;;;;5055311;28;19916;-70
2023/03/28 01:36:45;;;;;;;;;;;8.90;92.40;;;;;;5053982;28;20074;-70
2023/03/28 01:39:20;;;;;;;;;;;8.90;92.30;;;;;;5055664;28;19909;-75
2023/03/28 01:41:51;;;;;;;;;;;8.90;92.30;;;;;;5055060;28;19916;-70
2023/03/28 01:44:29;;;;;;;;;;;8.90;92.30;;;;;;5055468;28;20016;-70
2023/03/28 01:47:01;;;;;;;;;;;8.80;92.30;;;;;;5055379;28;19916;-70
2023/03/28 01:49:33;;;;;;;;;;;8.80;92.30;;;;;;5055532;28;20285;-69
2023/03/28 01:52:17;;;;;;;;;;;8.80;92.10;;;;;;5053734;28;19915;-70
2023/03/28 01:54:48;;;;;;;;;;;8.80;92.50;;;;;;5055149;28;19959;-69
2023/03/28 01:57:15;;;;;;;;;;;8.90;91.80;;;;;;5054879;28;19908;-69
2023/03/28 02:00:00;;;;;;;;;;;8.90;91.60;;;;;;5051675;28;20377;-69
2023/03/28 02:02:32;;;;;;;;;;;9.00;91.60;;;;;;5051272;28;20277;-69
2023/03/28 02:04:59;;;;;;;;;;;8.90;91.60;;;;;;5053713;28;20386;-69
2023/03/28 02:07:25;;;;;;;;;;;9.00;91.30;;;;;;5055117;28;19913;-70
2023/03/28 02:09:53;;;;;;;;;;;9.00;91.40;;;;;;5054874;28;19915;-69
2023/03/28 02:12:24;;;;;;;;;;;8.90;91.50;;;;;;5054345;28;19916;-70
2023/03/28 02:14:51;;;;;;;;;;;8.90;91.20;;;;;;5054433;28;19916;-70
2023/03/28 02:17:18;;;;;;;;;;;8.90;91.40;;;;;;5052701;28;19943;-70
2023/03/28 02:19:49;;;;;;;;;;;8.90;91.30;;;;;;5053730;28;19909;-70
2023/03/28 02:22:20;;;;;;;;;;;8.90;91.10;;;;;;5054467;28;19912;-71
2023/03/28 02:24:50;;;;;;;;;;;8.90;91.10;;;;;;5053310;28;19913;-70
2023/03/28 02:27:16;;;;;;;;;;;8.90;91.20;;;;;;5053302;28;19917;-70
2023/03/28 02:29:43;;;;;;;;;;;8.90;91.10;;;;;;5054502;28;20027;-70
2023/03/28 02:32:09;;;;;;;;;;;8.80;91.70;;;;;;5054839;28;20473;-70
2023/03/28 02:34:35;;;;;;;;;;;8.80;91.90;;;;;;5054300;28;19909;-70
2023/03/28 02:37:13;;;;;;;;;;;8.70;92.40;;;;;;5052964;28;19909;-70
2023/03/28 02:39:48;;;;;;;;;;;8.70;92.50;;;;;;5054861;28;20320;-70
2023/03/28 02:42:31;;;;;;;;;;;8.70;92.70;;;;;;5053744;28;19966;-70
2023/03/28 02:45:03;;;;;;;;;;;8.60;93.30;;;;;;5054254;28;19958;-70
2023/03/28 02:47:47;;;;;;;;;;;8.60;93.00;;;;;;5053314;28;19908;-72
2023/03/28 02:50:19;;;;;;;;;;;8.50;93.30;;;;;;5053030;28;19909;-69
2023/03/28 02:53:08;;;;;;;;;;;8.40;94.20;;;;;;5052731;28;19909;-70
2023/03/28 02:55:40;;;;;;;;;;;8.40;95.10;;;;;;5054391;28;19909;-70
2023/03/28 02:58:25;;;;;;;;;;;8.30;95.60;;;;;;5054309;28;19908;-70
2023/03/28 03:00:50;;;;;;;;;;;8.30;96.00;;;;;;5053806;28;19956;-71
2023/03/28 03:03:16;;;;;;;;;;;8.30;95.90;;;;;;5052137;28;19916;-73
2023/03/28 03:05:42;;;;;;;;;;;8.30;96.60;;;;;;5052295;28;19916;-70
2023/03/28 03:08:08;;;;;;;;;;;8.20;96.70;;;;;;5054041;28;19909;-70
2023/03/28 03:10:33;;;;;;;;;;;8.20;96.00;;;;;;5052731;28;20282;-69
2023/03/28 03:12:59;;;;;;;;;;;8.10;96.10;;;;;;5053302;28;19927;-70
2023/03/28 03:15:29;;;;;;;;;;;8.10;96.40;;;;;;5053292;28;19916;-70
2023/03/28 03:17:56;;;;;;;;;;;8.00;96.80;;;;;;5052196;28;19916;-70
2023/03/28 03:20:21;;;;;;;;;;;8.00;97.00;;;;;;5053483;28;19916;-71
2023/03/28 03:22:47;;;;;;;;;;;7.90;98.50;;;;;;5053155;28;19940;-70
2023/03/28 03:25:12;;;;;;;;;;;7.80;98.70;;;;;;5053598;28;19966;-70
2023/03/28 03:27:39;;;;;;;;;;;7.80;98.50;;;;;;5053731;28;19912;-70
2023/03/28 03:30:06;;;;;;;;;;;7.80;98.90;;;;;;5053516;28;19944;-70
2023/03/28 03:32:32;;;;;;;;;;;7.80;99.30;;;;;;5051637;28;19915;-69
2023/03/28 03:34:57;;;;;;;;;;;7.80;99.30;;;;;;5051332;28;19996;-70
2023/03/28 03:37:23;;;;;;;;;;;7.70;98.70;;;;;;5053538;28;20003;-72
2023/03/28 03:39:49;;;;;;;;;;;7.80;97.90;;;;;;5053297;28;19913;-69
2023/03/28 03:42:14;;;;;;;;;;;7.70;97.50;;;;;;5052856;28;19920;-69
2023/03/28 03:44:40;;;;;;;;;;;7.70;97.70;;;;;;5053001;28;19913;-69
2023/03/28 03:47:06;;;;;;;;;;;7.60;98.20;;;;;;5053507;28;19916;-70
2023/03/28 03:49:31;;;;;;;;;;;7.60;99.00;;;;;;5052970;28;19913;-70
2023/03/28 03:51:57;;;;;;;;;;;7.50;98.90;;;;;;5052980;28;19976;-69
2023/03/28 03:54:23;;;;;;;;;;;7.40;99.20;;;;;;5052709;28;19964;-70
2023/03/28 03:56:48;;;;;;;;;;;7.30;99.30;;;;;;5053231;28;19931;-70
2023/03/28 03:59:14;;;;;;;;;;;7.30;99.60;;;;;;5053459;28;19913;-70
2023/03/28 04:01:42;;;;;;;;;;;7.30;99.90;;;;;;5052840;28;19939;-70
2023/03/28 04:04:08;;;;;;;;;;;7.30;99.90;;;;;;5053339;28;19915;-75
2023/03/28 04:06:34;;;;;;;;;;;7.30;99.90;;;;;;5053083;28;20336;-70
2023/03/28 04:09:00;;;;;;;;;;;7.30;99.90;;;;;;5053033;28;19909;-70
2023/03/28 04:11:25;;;;;;;;;;;7.40;99.90;;;;;;5052762;28;19916;-73
2023/03/28 04:13:51;;;;;;;;;;;7.40;99.90;;;;;;5051244;28;19935;-70
2023/03/28 04:16:19;;;;;;;;;;;7.50;99.90;;;;;;5053027;28;19916;-70
2023/03/28 04:18:49;;;;;;;;;;;7.30;99.90;;;;;;5053056;28;20011;-69
2023/03/28 04:21:34;;;;;;;;;;;7.20;99.90;;;;;;5052587;28;20398;-74
2023/03/28 04:24:00;;;;;;;;;;;7.00;99.90;;;;;;5051132;28;19963;-70
2023/03/28 04:26:27;;;;;;;;;;;6.90;99.90;;;;;;5052716;28;20003;-70
2023/03/28 04:28:53;;;;;;;;;;;6.80;99.90;;;;;;5053455;28;20348;-68
2023/03/28 04:31:20;;;;;;;;;;;6.70;99.90;;;;;;5053181;28;20290;-70
2023/03/28 04:33:47;;;;;;;;;;;6.80;99.90;;;;;;5052573;28;19999;-70
2023/03/28 04:36:15;;;;;;;;;;;6.80;99.90;;;;;;5052882;28;19917;-70
2023/03/28 04:38:46;;;;;;;;;;;6.80;99.90;;;;;;5051974;28;21349;-69
2023/03/28 04:41:12;;;;;;;;;;;6.80;99.90;;;;;;5053943;28;20355;-69
2023/03/28 04:43:38;;;;;;;;;;;6.80;99.90;;;;;;5056070;28;20433;-70
2023/03/28 04:46:04;;;;;;;;;;;6.80;99.90;;;;;;5056752;28;19909;-70
2023/03/28 04:48:30;;;;;;;;;;;6.70;99.90;;;;;;5056261;28;19908;-70
2023/03/28 04:50:55;;;;;;;;;;;6.80;99.90;;;;;;5056455;28;19916;-70
2023/03/28 04:53:21;;;;;;;;;;;6.80;99.90;;;;;;5054546;28;19924;-69
2023/03/28 04:55:49;;;;;;;;;;;6.90;99.90;;;;;;5054876;28;19920;-70
2023/03/28 04:58:15;;;;;;;;;;;7.00;99.90;;;;;;5056806;28;19909;-69
2023/03/28 05:00:41;;;;;;;;;;;7.10;99.90;;;;;;5055901;28;19999;-70
2023/03/28 05:03:12;;;;;;;;;;;7.00;99.90;;;;;;5055799;28;19948;-74
2023/03/28 05:05:37;;;;;;;;;;;6.90;99.90;;;;;;5055465;28;19913;-70
2023/03/28 05:08:03;;;;;;;;;;;6.90;99.90;;;;;;5054401;28;19908;-70
2023/03/28 05:10:29;;;;;;;;;;;6.80;99.90;;;;;;5054195;28;20058;-70
2023/03/28 05:12:54;;;;;;;;;;;6.80;99.90;;;;;;5054960;28;20371;-69
2023/03/28 05:15:20;;;;;;;;;;;6.70;99.90;;;;;;5055854;28;19940;-73
2023/03/28 05:17:45;;;;;;;;;;;6.70;99.90;;;;;;5055946;28;19916;-70
2023/03/28 05:20:11;;;;;;;;;;;6.70;99.90;;;;;;5056272;28;19908;-70
2023/03/28 05:22:37;;;;;;;;;;;6.70;99.90;;;;;;5053678;28;19924;-70
2023/03/28 05:25:03;;;;;;;;;;;6.70;99.90;;;;;;5054427;28;19909;-70
2023/03/28 05:27:29;;;;;;;;;;;6.60;99.90;;;;;;5055894;28;19909;-70
2023/03/28 05:29:55;;;;;;;;;;;6.60;99.90;;;;;;5056114;28;19908;-70
2023/03/28 05:32:21;;;;;;;;;;;6.70;99.90;;;;;;5054220;28;20005;-70
2023/03/28 05:34:47;;;;;;;;;;;6.70;99.90;;;;;;5054492;28;20004;-70
2023/03/28 05:37:12;;;;;;;;;;;6.70;99.90;;;;;;5054508;28;19908;-70
2023/03/28 05:39:38;;;;;;;;;;;6.70;99.90;;;;;;5055439;28;19994;-71
2023/03/28 05:42:04;;;;;;;;;;;6.70;99.90;;;;;;5053993;28;19956;-70
2023/03/28 05:44:30;;;;;;;;;;;6.70;99.90;;;;;;5055350;28;19909;-71
2023/03/28 05:46:55;;;;;;;;;;;6.80;99.90;;;;;;5054242;28;19909;-69
2023/03/28 05:49:21;;;;;;;;;;;6.80;99.90;;;;;;5054370;28;19912;-71
2023/03/28 05:51:47;;;;;;;;;;;6.90;99.90;;;;;;5052022;28;19913;-70
2023/03/28 05:54:12;;;;;;;;;;;6.90;99.90;;;;;;5053825;28;19909;-70
2023/03/28 05:56:38;;;;;;;;;;;6.90;99.90;;;;;;5053757;28;19915;-70
2023/03/28 05:59:04;;;;;;;;;;;6.90;99.90;;;;;;5053917;28;19931;-70
2023/03/28 06:01:30;;;;;;;;;;;7.00;99.90;;;;;;5055592;28;19913;-70
2023/03/28 06:03:57;;;;;;;;;;;7.10;99.90;;;;;;5055099;28;19916;-70
2023/03/28 06:06:22;;;;;;;;;;;7.10;99.90;;;;;;5053328;28;19913;-70
2023/03/28 06:08:48;;;;;;;;;;;7.40;99.90;;;;;;5054860;28;20000;-70
2023/03/28 06:11:14;;;;;;;;;;;7.50;99.90;;;;;;5053514;28;20401;-70
2023/03/28 06:13:40;;;;;;;;;;;7.60;99.90;;;;;;5054753;28;19920;-70
2023/03/28 06:16:05;;;;;;;;;;;7.70;99.90;;;;;;5052994;28;20393;-70
2023/03/28 06:18:31;;;;;;;;;;;7.90;99.90;;;;;;5053966;28;19909;-73
2023/03/28 06:20:56;;;;;;;;;;;8.00;99.90;;;;;;5052400;28;19959;-70
2023/03/28 06:23:22;;;;;;;;;;;8.00;99.90;;;;;;5052999;28;19917;-70
2023/03/28 06:25:48;;;;;;;;;;;8.30;99.90;;;;;;5052975;28;19938;-71
2023/03/28 06:28:14;;;;;;;;;;;8.40;99.90;;;;;;5053220;28;19954;-70
2023/03/28 06:30:40;;;;;;;;;;;8.40;99.90;;;;;;5053100;28;19951;-70
2023/03/28 06:33:06;;;;;;;;;;;8.50;99.90;;;;;;5054388;28;19909;-71
2023/03/28 06:35:32;;;;;;;;;;;8.40;99.90;;;;;;5054934;28;20007;-70
2023/03/28 06:37:58;;;;;;;;;;;8.40;99.90;;;;;;5054339;28;19917;-70
2023/03/28 06:40:24;;;;;;;;;;;8.60;99.90;;;;;;5054458;28;19909;-70
2023/03/28 06:42:50;;;;;;;;;;;8.70;99.90;;;;;;5053771;28;20428;-70
2023/03/28 06:45:15;;;;;;;;;;;8.80;99.90;;;;;;5054403;28;19935;-70
2023/03/28 06:47:41;;;;;;;;;;;9.00;99.90;;;;;;5054074;28;19909;-70
2023/03/28 06:50:07;;;;;;;;;;;8.90;99.90;;;;;;5054044;28;20046;-70
2023/03/28 06:52:32;;;;;;;;;;;9.00;99.90;;;;;;5053821;28;19909;-70
2023/03/28 06:54:59;;;;;;;;;;;9.30;99.90;;;;;;5052901;28;19908;-70
2023/03/28 06:57:24;;;;;;;;;;;9.40;99.90;;;;;;5054825;28;19940;-70
2023/03/28 06:59:51;;;;;;;;;;;9.60;99.90;;;;;;5052648;28;19952;-70
2023/03/28 07:02:16;;;;;;;;;;;9.60;99.90;;;;;;5051869;28;20293;-70
2023/03/28 07:04:42;;;;;;;;;;;9.50;99.90;;;;;;5049836;28;19912;-70
2023/03/28 07:07:08;;;;;;;;;;;9.50;99.90;;;;;;5052162;28;20520;-70
2023/03/28 07:09:34;;;;;;;;;;;9.50;99.90;;;;;;5050593;28;19909;-70
2023/03/28 07:12:00;;;;;;;;;;;9.50;99.90;;;;;;5051786;28;20251;-70
2023/03/28 07:14:26;;;;;;;;;;;9.50;99.90;;;;;;5051930;28;19909;-70
2023/03/28 07:16:51;;;;;;;;;;;9.40;99.90;;;;;;5051932;28;19951;-70
2023/03/28 07:19:17;;;;;;;;;;;9.50;99.90;;;;;;5050400;28;20000;-70
2023/03/28 07:21:42;;;;;;;;;;;9.50;99.90;;;;;;5050018;28;19913;-70
2023/03/28 07:24:08;;;;;;;;;;;9.50;99.90;;;;;;5051857;28;19924;-69
2023/03/28 07:26:34;;;;;;;;;;;9.50;99.90;;;;;;5051690;28;20286;-70
2023/03/28 07:28:59;;;;;;;;;;;9.50;99.90;;;;;;5051589;28;19997;-70
2023/03/28 07:31:25;;;;;;;;;;;9.50;99.90;;;;;;5051466;28;19909;-70
2023/03/28 07:33:51;;;;;;;;;;;9.50;99.90;;;;;;5049968;28;19967;-70
2023/03/28 07:36:18;;;;;;;;;;;9.50;99.90;;;;;;5051454;28;20441;-70
2023/03/28 07:38:44;;;;;;;;;;;9.50;99.90;;;;;;5053468;28;19909;-70
2023/03/28 07:41:10;;;;;;;;;;;9.60;99.90;;;;;;5052454;28;19913;-70
2023/03/28 07:43:37;;;;;;;;;;;9.60;99.90;;;;;;5054043;28;19916;-70
2023/03/28 07:46:05;;;;;;;;;;;9.70;99.90;;;;;;5054027;28;19970;-70
2023/03/28 07:48:30;;;;;;;;;;;9.70;99.90;;;;;;5052266;28;20003;-71
2023/03/28 07:50:56;;;;;;;;;;;9.70;99.90;;;;;;5052711;28;19975;-70
2023/03/28 07:53:22;;;;;;;;;;;9.80;99.90;;;;;;5053619;28;19915;-70
2023/03/28 07:55:47;;;;;;;;;;;9.90;99.90;;;;;;5053301;28;19974;-70
2023/03/28 07:58:13;;;;;;;;;;;9.90;99.90;;;;;;5052229;28;20233;-73
2023/03/28 08:00:39;;;;;;;;;;;9.90;99.90;;;;;;5051564;28;19909;-71
2023/03/28 08:03:05;;;;;;;;;;;10.00;99.90;;;;;;5052085;28;19909;-70
2023/03/28 08:05:32;;;;;;;;;;;10.00;99.90;;;;;;5052441;28;19975;-70
2023/03/28 08:07:58;;;;;;;;;;;10.00;99.90;;;;;;5052367;28;20238;-71
2023/03/28 08:10:24;;;;;;;;;;;9.90;99.90;;;;;;5053156;28;19952;-71
2023/03/28 08:12:50;;;;;;;;;;;9.90;99.90;;;;;;5052962;28;19915;-71
2023/03/28 08:15:16;;;;;;;;;;;9.90;99.90;;;;;;5053522;28;19909;-74
2023/03/28 08:17:41;;;;;;;;;;;10.00;99.90;;;;;;5057888;28;19909;-70
2023/03/28 08:20:09;;;;;;;;;;;10.10;99.90;;;;;;5057710;28;19913;-70
2023/03/28 08:22:34;;;;;;;;;;;10.10;99.90;;;;;;5056724;28;20335;-70
2023/03/28 08:25:00;;;;;;;;;;;10.10;99.90;;;;;;5057411;28;19909;-70
2023/03/28 08:27:26;;;;;;;;;;;10.20;99.90;;;;;;5056926;28;19951;-70
2023/03/28 08:29:51;;;;;;;;;;;10.20;99.90;;;;;;5056137;28;20374;-74
2023/03/28 08:32:17;;;;;;;;;;;10.20;99.90;;;;;;5056168;28;19913;-70
2023/03/28 08:34:43;;;;;;;;;;;10.30;99.90;;;;;;5056894;28;20002;-70
2023/03/28 08:37:09;;;;;;;;;;;10.30;99.90;;;;;;5055951;28;20271;-71
2023/03/28 08:39:36;;;;;;;;;;;10.30;99.90;;;;;;5056956;28;19909;-70
2023/03/28 08:42:14;;;;;;;;;;;10.30;99.90;;;;;;5056764;28;19975;-70
2023/03/28 08:45:01;;;;;;;;;;;10.40;99.90;;;;;;5057085;28;19999;-75
2023/03/28 08:47:31;;;;;;;;;;;10.30;99.90;;;;;;5057101;28;19909;-72
2023/03/28 08:50:18;;;;;;;;;;;10.40;99.90;;;;;;5055066;28;19908;-73
2023/03/28 08:52:45;;;;;;;;;;;10.40;99.90;;;;;;5056495;28;19999;-75
2023/03/28 08:55:30;;;;;;;;;;;10.40;99.90;;;;;;5055458;28;19908;-76
2023/03/28 08:57:56;;;;;;;;;;;10.40;99.90;;;;;;5056843;28;19916;-75
2023/03/28 09:00:23;;;;;;;;;;;10.30;99.90;;;;;;5056208;28;20011;-75
2023/03/28 09:02:49;;;;;;;;;;;10.40;99.90;;;;;;5056467;28;20370;-75
2023/03/28 09:05:16;;;;;;;;;;;10.40;99.90;;;;;;5054714;28;20203;-75
2023/03/28 09:08:00;;;;;;;;;;;10.40;99.90;;;;;;5056532;28;19932;-75
2023/03/28 09:10:39;;;;;;;;;;;10.40;99.90;;;;;;5054999;28;19940;-74
2023/03/28 09:13:14;;;;;;;;;;;10.50;99.90;;;;;;5056091;28;19939;-70
2023/03/28 09:15:58;;;;;;;;;;;10.60;99.90;;;;;;5056431;28;19951;-70
2023/03/28 09:18:24;;;;;;;;;;;10.70;99.90;;;;;;5055901;28;19996;-71
2023/03/28 09:20:58;;;;;;;;;;;10.80;99.40;;;;;;5056007;28;19977;-71
2023/03/28 09:23:42;;;;;;;;;;;10.90;99.10;;;;;;5054398;28;20003;-72
2023/03/28 09:26:21;;;;;;;;;;;11.00;98.50;;;;;;5054667;28;19999;-72
2023/03/28 09:29:01;;;;;;;;;;;11.20;99.30;;;;;;5056040;28;19939;-71
2023/03/28 09:31:31;;;;;;;;;;;11.30;99.70;;;;;;5054876;28;20073;-71
2023/03/28 09:33:58;;;;;;;;;;;11.30;99.20;;;;;;5055468;28;20004;-75
2023/03/28 09:36:27;;;;;;;;;;;11.40;99.10;;;;;;5055920;28;20004;-71
2023/03/28 09:38:55;;;;;;;;;;;11.50;99.70;;;;;;5056432;28;19947;-72
2023/03/28 09:41:25;;;;;;;;;;;11.50;99.90;;;;;;5055673;28;19913;-70
2023/03/28 09:43:52;;;;;;;;;;;11.60;99.90;;;;;;5053844;28;20323;-70
2023/03/28 09:46:37;;;;;;;;;;;11.60;99.90;;;;;;5054083;28;19966;-70
2023/03/28 09:49:03;;;;;;;;;;;11.60;99.90;;;;;;5056040;28;19908;-71
2023/03/28 09:51:29;;;;;;;;;;;11.60;99.90;;;;;;5055987;28;20012;-70
2023/03/28 09:53:54;;;;;;;;;;;11.50;99.90;;;;;;5055307;28;19920;-71
2023/03/28 09:56:20;;;;;;;;;;;11.50;99.90;;;;;;5055670;28;19912;-71
2023/03/28 09:58:53;;;;;;;;;;;11.50;99.90;;;;;;5054094;28;19916;-71
2023/03/28 10:01:33;;;;;;;;;;;11.60;99.90;;;;;;5055211;28;19936;-71
2023/03/28 10:03:59;;;;;;;;;;;11.60;99.90;;;;;;5053527;28;19916;-71
2023/03/28 10:06:26;;;;;;;;;;;11.70;99.90;;;;;;5054934;28;19909;-70
2023/03/28 10:09:07;;;;;;;;;;;11.70;99.90;;;;;;5053621;28;19912;-71
2023/03/28 10:11:42;;;;;;;;;;;11.60;99.90;;;;;;5055402;28;19916;-71
2023/03/28 10:14:26;;;;;;;;;;;11.70;99.90;;;;;;5053897;28;19923;-71
2023/03/28 10:16:52;;;;;;;;;;;11.70;99.90;;;;;;5053603;28;19991;-71
2023/03/28 10:19:23;;;;;;;;;;;11.60;99.90;;;;;;5054599;28;19962;-71
2023/03/28 10:21:48;;;;;;;;;;;11.60;99.90;;;;;;5053935;28;20033;-71
2023/03/28 10:24:15;;;;;;;;;;;11.70;99.90;;;;;;5052881;28;20402;-71
2023/03/28 10:26:41;;;;;;;;;;;11.60;99.90;;;;;;5053812;28;19967;-71
2023/03/28 10:29:10;;;;;;;;;;;11.60;99.90;;;;;;5052775;28;19912;-71
2023/03/28 10:31:37;;;;;;;;;;;11.60;99.90;;;;;;5054300;28;19915;-71
2023/03/28 10:34:02;;;;;;;;;;;11.60;99.90;;;;;;5053845;28;19996;-71
2023/03/28 10:36:31;;;;;;;;;;;11.60;99.90;;;;;;5053484;28;19955;-70
2023/03/28 10:38:58;;;;;;;;;;;11.70;99.90;;;;;;5054032;28;20511;-71
2023/03/28 10:41:25;;;;;;;;;;;11.70;99.90;;;;;;5054538;28;19912;-71
2023/03/28 10:43:51;;;;;;;;;;;11.70;99.90;;;;;;5052845;28;19919;-71
2023/03/28 10:46:19;;;;;;;;;;;11.80;99.90;;;;;;5053278;28;19945;-71
2023/03/28 10:48:51;;;;;;;;;;;11.80;99.90;;;;;;5054933;28;19908;-71
2023/03/28 10:51:21;;;;;;;;;;;11.80;99.90;;;;;;5053364;28;19999;-71
2023/03/28 10:54:05;;;;;;;;;;;11.80;99.60;;;;;;5052673;28;20406;-71
2023/03/28 10:56:40;;;;;;;;;;;11.80;99.00;;;;;;5055131;28;19909;-71
2023/03/28 10:59:20;;;;;;;;;;;11.80;97.90;;;;;;5052911;28;19962;-72
2023/03/28 11:01:46;;;;;;;;;;;11.90;99.20;;;;;;5054278;28;19935;-71
2023/03/28 11:04:27;;;;;;;;;;;12.00;98.50;;;;;;5054936;28;20462;-71
2023/03/28 11:07:13;;;;;;;;;;;12.10;97.90;;;;;;5054832;28;20386;-71
2023/03/28 11:09:45;;;;;;;;;;;12.00;96.80;;;;;;5053420;28;20353;-70
2023/03/28 11:12:11;;;;;;;;;;;12.10;94.80;;;;;;5053937;28;19961;-71
2023/03/28 11:14:36;;;;;;;;;;;12.10;93.90;;;;;;5055003;28;20011;-72
2023/03/28 11:17:02;;;;;;;;;;;12.20;94.40;;;;;;5052680;28;20409;-71
2023/03/28 11:19:28;;;;;;;;;;;12.20;92.90;;;;;;5053698;28;19909;-70
2023/03/28 11:22:03;;;;;;;;;;;12.20;92.10;;;;;;5053478;28;19935;-70
2023/03/28 11:24:47;;;;;;;;;;;12.30;91.60;;;;;;5052314;28;19917;-72
2023/03/28 11:27:22;;;;;;;;;;;12.40;91.20;;;;;;5053879;28;19919;-71
2023/03/28 11:29:48;;;;;;;;;;;12.40;92.70;;;;;;5054196;28;20004;-71
2023/03/28 11:32:14;;;;;;;;;;;12.50;93.30;;;;;;5053090;28;19909;-72
2023/03/28 11:34:43;;;;;;;;;;;12.50;95.20;;;;;;5053787;28;19916;-72
2023/03/28 11:37:09;;;;;;;;;;;12.60;95.80;;;;;;5052190;28;19912;-71
2023/03/28 11:39:41;;;;;;;;;;;12.50;95.30;;;;;;5053701;28;19915;-71
2023/03/28 11:42:19;;;;;;;;;;;12.60;94.40;;;;;;5053297;28;19913;-71
2023/03/28 11:44:56;;;;;;;;;;;12.60;93.40;;;;;;5053967;28;20000;-71
2023/03/28 11:47:28;;;;;;;;;;;12.60;92.80;;;;;;5053616;28;19909;-71
2023/03/28 11:50:03;;;;;;;;;;;12.60;93.40;;;;;;5053710;28;20313;-71
2023/03/28 11:52:36;;;;;;;;;;;12.60;94.60;;;;;;5051565;28;19912;-71
2023/03/28 11:55:16;;;;;;;;;;;12.60;96.60;;;;;;5053408;28;20003;-72
2023/03/28 11:58:02;;;;;;;;;;;12.60;97.70;;;;;;5051899;28;19940;-71
2023/03/28 12:00:42;;;;;;;;;;;12.70;99.10;;;;;;5051595;28;20386;-72
2023/03/28 12:03:33;;;;;;;;;;;12.60;99.50;;;;;;5052813;28;19943;-72
2023/03/28 12:06:09;;;;;;;;;;;12.70;99.90;;;;;;5050274;28;19916;-72
2023/03/28 12:08:50;;;;;;;;;;;12.70;99.90;;;;;;5050444;28;19909;-71
2023/03/28 12:11:19;;;;;;;;;;;12.60;99.90;;;;;;5049744;28;20004;-72
2023/03/28 12:13:47;;;;;;;;;;;12.60;99.90;;;;;;5052265;28;19919;-72
2023/03/28 12:16:33;;;;;;;;;;;12.60;99.60;;;;;;5051773;28;19992;-72
2023/03/28 12:19:00;;;;;;;;;;;12.60;98.10;;;;;;5053346;28;20019;-72
2023/03/28 12:21:41;;;;;;;;;;;12.60;96.70;;;;;;5085831;28;19975;-72
2023/03/28 12:24:24;;;;;;;;;;;12.60;98.60;;;;;;5051623;28;19916;-72
2023/03/28 12:27:13;;;;;;;;;;;12.60;97.90;;;;;;5049407;28;20294;-71
2023/03/28 12:30:20;;;;;;;;;;;12.60;96.90;;;;;;5062337;28;19913;-72
2023/03/28 12:33:00;;;;;;;;;;;12.50;99.40;;;;;;5044276;28;19972;-72
2023/03/28 12:35:26;;;;;;;;;;;12.50;99.90;;;;;;5029988;28;19944;-71
2023/03/28 12:37:57;;;;;;;;;;;12.50;99.90;;;;;;5042819;28;20298;-72
2023/03/28 12:40:23;;;;;;;;;;;12.40;99.90;;;;;;5053335;28;19912;-72
2023/03/28 12:42:50;;;;;;;;;;;12.40;98.10;;;;;;5051941;28;19913;-72
2023/03/28 12:45:30;;;;;;;;;;;12.40;99.90;;;;;;5050106;28;20297;-71
2023/03/28 12:48:01;;;;;;;;;;;12.50;96.80;;;;;;5051708;28;19909;-73
2023/03/28 12:50:39;;;;;;;;;;;12.60;95.20;;;;;;5052881;28;19999;-71
2023/03/28 12:53:07;;;;;;;;;;;12.60;93.50;;;;;;5045057;28;19967;-73
2023/03/28 12:56:07;;;;;;;;;;;12.60;92.80;;;;;;5047727;28;19913;-72
2023/03/28 12:59:08;;;;;;;;;;;12.60;92.30;;;;;;5060740;28;19920;-72
2023/03/28 13:02:05;;;;;;;;;;;;;;;;;;;;;
2023/03/28 13:04:55;;;;;;;;;;;12.60;98.90;;;;;;5067160;28;19934;-71
2023/03/28 13:14:06;;;;;;;;;;;12.70;99.90;;;;;;5073821;28;20007;-72
2023/03/28 13:17:14;;;;;;;;;;;12.80;99.90;;;;;;5077051;28;20271;-72
2023/03/28 13:20:17;;;;;;;;;;;;;;;;;;;;;
2023/03/28 13:26:25;;;;;;;;;;;;;;;;;;;;;
2023/03/28 13:29:04;;;;;;;;;;;12.80;94.50;;;;;;4962971;28;19919;-71
2023/03/28 13:31:31;;;;;;;;;;;12.80;95.80;;;;;;4985458;28;19930;-72
2023/03/28 13:34:34;;;;;;;;;;;12.80;97.60;;;;;;4991545;28;20458;-72
2023/03/28 13:37:36;;;;;;;;;;;12.80;99.80;;;;;;4989127;28;20491;-71
2023/03/28 13:40:12;;;;;;;;;;;12.90;99.90;;;;;;5005142;28;19917;-72
2023/03/28 13:42:52;;;;;;;;;;;12.90;99.90;;;;;;4992798;28;20400;-72
2023/03/28 13:46:00;;;;;;;;;;;12.90;99.90;;;;;;5058302;28;20385;-72
2023/03/28 13:48:33;;;;;;;;;;;13.00;99.90;;;;;;5064583;28;20418;-71
2023/03/28 13:51:04;;;;;;;;;;;13.00;98.10;;;;;;5059089;28;19928;-72
2023/03/28 13:53:31;;;;;;;;;;;12.90;97.50;;;;;;5064349;28;20409;-72
2023/03/28 13:56:39;;;;;;;;;;;12.80;95.00;;;;;;5066466;28;20402;-72
2023/03/28 13:59:20;;;;;;;;;;;12.80;98.50;;;;;;5059793;28;20314;-72
2023/03/28 14:02:02;;;;;;;;;;;12.80;93.10;;;;;;5061332;28;20259;-72
2023/03/28 14:04:38;;;;;;;;;;;12.90;93.60;;;;;;5060558;28;19913;-72
2023/03/28 14:07:14;;;;;;;;;;;13.00;92.30;;;;;;5057441;28;19959;-72
2023/03/28 14:10:05;;;;;;;;;;;13.10;93.60;;;;;;5067465;28;20005;-72
2023/03/28 14:12:50;;;;;;;;;;;13.20;91.80;;;;;;5060135;28;19968;-72
2023/03/28 14:15:39;;;;;;;;;;;13.40;90.50;;;;;;5053507;28;20294;-72
2023/03/28 14:18:40;;;;;;;;;;;13.50;90.60;;;;;;5055320;28;20361;-72
2023/03/28 14:21:15;;;;;;;;;;;13.50;90.70;;;;;;5072565;28;20414;-73
2023/03/28 14:24:14;;;;;;;;;;;13.60;91.60;;;;;;5050110;28;19916;-73
2023/03/28 14:29:36;;;;;;;;;;;13.70;86.20;;;;;;5054985;28;20326;-72
2023/03/28 14:38:38;;;;;;;;;;;13.80;79.20;;;;;;5047173;28;19919;-72
2023/03/28 14:41:28;;;;;;;;;;;13.80;76.30;;;;;;5057111;28;19967;-72
2023/03/28 14:46:49;;;;;;;;;;;14.10;76.80;;;;;;5057339;28;19943;-72
2023/03/28 14:49:19;;;;;;;;;;;14.20;76.90;;;;;;5058876;28;19917;-72
2023/03/28 14:51:52;;;;;;;;;;;14.30;76.00;;;;;;5064418;28;19913;-73
2023/03/28 14:54:21;;;;;;;;;;;14.30;71.90;;;;;;5064214;28;20385;-72
2023/03/28 14:56:48;;;;;;;;;;;14.30;71.80;;;;;;5062260;28;20051;-72
2023/03/28 14:59:15;;;;;;;;;;;14.30;72.30;;;;;;5063183;28;19913;-72
2023/03/28 15:01:42;;;;;;;;;;;14.30;76.00;;;;;;5057002;28;19962;-73
2023/03/28 15:04:10;;;;;;;;;;;14.30;80.00;;;;;;5052737;28;19935;-74
2023/03/28 15:06:38;;;;;;;;;;;14.40;86.80;;;;;;5048179;28;20283;-73
2023/03/28 15:09:57;;;;;;;;;;;;;;;;;;;;;
2023/03/28 15:12:30;;;;;;;;;;;14.40;84.50;;;;;;5050545;28;19936;-73
2023/03/28 15:14:57;;;;;;;;;;;14.50;87.60;;;;;;5050235;28;20016;-73